Pagrindinis puslapis
METAR-TAF:

METAR-TAF

Oro uostai :

Garner Field

Uvalde, Teksasas, Jungtinės Amerikos Valstijos

platuma: 29-12-40N, ilguma: 099-44-36W, Aukštis: 287 m

Dabartinis oras

Ataskaita buvo paskelbta 7 minutes, ne 10:55 UTC
Vėjas 4 kt iš Šiaurės
Temperatūra 20°C
Drėgmė 94%
Slėgis 1019 hPa
Matomumas: 16.1 km

METAR: KUVA 291055Z AUTO 01004KT 10SM 20/19 A3009 RMK AO2 LTG DSNT S T02000187

Laikas: 06:02 (11:02 UTC)


TAF: trūkstamas

Orai ataskaitas ir orų prognozės (METAR, TAF).

turimą stotys yra geltonos ir raudonos taškus žemėlapyje.

Perkelti pele per norėdami pamatyti stoties vardą.

Tada spustelėkite, norėdami matyti oro stebėjimo ir prognozės.

Norėdami pakeisti žemėlapį: spustelėkite ant žalios mygtukų su juodo kryžiaus žemyn,; žalią mygtuką su brūkšneliu, jei norite nutolinti; arba žalių rodyklių gretimoms žemėlapius.


METAR-TAF: